createdAt,value
2023-08-13T00:01:27.961Z,91.8
2023-08-13T00:03:08.936Z,91.7
2023-08-13T00:04:49.772Z,91.7
2023-08-13T00:06:30.365Z,91.7
2023-08-13T00:08:11.292Z,91.6
2023-08-13T00:09:52.605Z,91.8
2023-08-13T00:11:33.082Z,91.6
2023-08-13T00:13:13.546Z,91.8
2023-08-13T00:14:53.974Z,91.6
2023-08-13T00:16:34.648Z,91.7
2023-08-13T00:18:15.193Z,91.5
2023-08-13T00:19:55.665Z,91.6
2023-08-13T00:21:36.117Z,91.4
2023-08-13T00:23:16.568Z,91.7
2023-08-13T00:24:57.018Z,91.8
2023-08-13T00:26:37.488Z,91.8
2023-08-13T00:28:17.952Z,91.6
2023-08-13T00:29:58.380Z,91.2
2023-08-13T00:31:38.862Z,91.2
2023-08-13T00:33:19.397Z,91.3
2023-08-13T00:34:59.869Z,91.6
2023-08-13T00:36:40.319Z,91.5
2023-08-13T00:38:20.767Z,91.5
2023-08-13T00:40:01.308Z,91.8
2023-08-13T00:41:58.687Z,91.7
2023-08-13T00:43:39.153Z,91.2
2023-08-13T00:45:19.708Z,91.5
2023-08-13T00:47:00.153Z,91.5
2023-08-13T00:48:40.652Z,91.2
2023-08-13T00:50:21.287Z,91.4
2023-08-13T00:52:01.719Z,91.6
2023-08-13T00:53:42.190Z,91.4
2023-08-13T00:55:22.693Z,91.6
2023-08-13T00:57:03.597Z,91.4
2023-08-13T00:58:44.089Z,91.2
2023-08-13T01:00:24.603Z,91.4
2023-08-13T01:02:05.171Z,91.2
2023-08-13T01:03:45.789Z,91.9
2023-08-13T01:05:26.317Z,91.6
2023-08-13T01:07:06.747Z,91.5
2023-08-13T01:08:47.200Z,91.5
2023-08-13T01:10:27.673Z,91.4
2023-08-13T01:12:08.070Z,91.2
2023-08-13T01:13:48.651Z,91.2
2023-08-13T01:15:29.115Z,91.3
2023-08-13T01:17:09.619Z,91.2
2023-08-13T01:18:50.136Z,91.2
2023-08-13T01:20:31.153Z,91
2023-08-13T01:22:12.002Z,90.8
2023-08-13T01:23:52.937Z,91.3
2023-08-13T01:25:33.391Z,90.9
2023-08-13T01:27:13.880Z,91
2023-08-13T01:28:54.326Z,91.7
2023-08-13T01:30:35.024Z,91.1
2023-08-13T01:32:16.363Z,91.2
2023-08-13T01:33:57.488Z,91.1
2023-08-13T01:35:38.120Z,91.2
2023-08-13T01:37:18.628Z,91
2023-08-13T01:38:59.085Z,91.5
2023-08-13T01:40:39.573Z,91
2023-08-13T01:42:20.096Z,91.3
2023-08-13T01:44:00.622Z,90.9
2023-08-13T01:45:41.176Z,91.3
2023-08-13T01:47:21.761Z,91.2
2023-08-13T01:49:02.221Z,91.1
2023-08-13T01:50:42.688Z,91.3
2023-08-13T01:52:23.133Z,90.8
2023-08-13T01:54:03.595Z,91
2023-08-13T01:55:44.259Z,90.7
2023-08-13T01:57:24.713Z,90.9
2023-08-13T01:59:05.195Z,90.8
2023-08-13T02:00:45.800Z,90.7
2023-08-13T02:03:14.981Z,90.7
2023-08-13T02:04:55.545Z,90.9
2023-08-13T02:06:36.116Z,91
2023-08-13T02:08:16.579Z,90.9
2023-08-13T02:09:57.037Z,90.8
2023-08-13T02:11:37.502Z,91.1
2023-08-13T02:13:18.040Z,91
2023-08-13T02:14:58.628Z,90.9
2023-08-13T02:16:39.161Z,91.8
2023-08-13T02:18:19.636Z,91.6
2023-08-13T02:20:00.089Z,90.9
2023-08-13T02:21:40.551Z,91
2023-08-13T02:23:21.016Z,91
2023-08-13T02:25:01.545Z,91.4
2023-08-13T02:26:42.004Z,91.2
2023-08-13T02:28:22.480Z,91
2023-08-13T02:30:03.001Z,91
2023-08-13T02:31:43.474Z,91.1
2023-08-13T02:33:23.938Z,91.2
2023-08-13T02:35:04.377Z,91.1
2023-08-13T02:36:44.838Z,90.9
2023-08-13T02:38:25.292Z,91.5
2023-08-13T02:40:05.747Z,91
2023-08-13T02:41:46.214Z,91
2023-08-13T02:43:26.659Z,90.9
2023-08-13T02:45:07.239Z,91.4
2023-08-13T02:46:47.697Z,91
2023-08-13T02:48:28.248Z,90.9
2023-08-13T02:50:08.960Z,91.1
2023-08-13T02:51:49.458Z,91
2023-08-13T02:53:29.904Z,91.1
2023-08-13T02:55:10.356Z,91.6
2023-08-13T02:56:50.825Z,91.2
2023-08-13T02:58:31.271Z,91.1
2023-08-13T03:00:11.759Z,90.6
2023-08-13T03:01:52.370Z,90.6
2023-08-13T03:03:50.521Z,91.1
2023-08-13T03:05:33.180Z,90.5
2023-08-13T03:07:13.728Z,90.8
2023-08-13T03:08:54.168Z,91.2
2023-08-13T03:10:34.641Z,90.8
2023-08-13T03:12:15.511Z,90.6
2023-08-13T03:13:56.052Z,90.8
2023-08-13T03:15:36.572Z,90.9
2023-08-13T03:17:17.067Z,91.5
2023-08-13T03:18:57.530Z,90.8
2023-08-13T03:20:37.986Z,91
2023-08-13T03:22:18.428Z,90.8
2023-08-13T03:23:58.887Z,91.1
2023-08-13T03:25:39.343Z,91.1
2023-08-13T03:27:19.801Z,90.7
2023-08-13T03:29:00.266Z,90.6
2023-08-13T03:30:40.738Z,91.3
2023-08-13T03:32:21.165Z,90.7
2023-08-13T03:34:01.646Z,91
2023-08-13T03:35:42.176Z,90.8
2023-08-13T03:37:22.647Z,91.5
2023-08-13T03:39:03.093Z,90.8
2023-08-13T03:40:43.547Z,90.7
2023-08-13T03:42:24.005Z,90.7
2023-08-13T03:44:04.470Z,90.7
2023-08-13T03:45:45.045Z,91.1
2023-08-13T03:47:25.519Z,90.8
2023-08-13T03:49:06.044Z,90.9
2023-08-13T03:50:46.493Z,90.4
2023-08-13T03:52:26.961Z,90.7
2023-08-13T03:54:24.324Z,90.7
2023-08-13T03:56:04.775Z,91
2023-08-13T03:57:45.247Z,90.9
2023-08-13T03:59:25.694Z,90.9
2023-08-13T04:01:06.425Z,90.9
2023-08-13T04:02:47.423Z,90.6
2023-08-13T04:04:28.355Z,90.8
2023-08-13T04:06:08.944Z,90.8
2023-08-13T04:07:49.415Z,90.4
2023-08-13T04:09:29.850Z,90.3
2023-08-13T04:11:10.477Z,90.7
2023-08-13T04:12:50.985Z,90.4
2023-08-13T04:14:31.427Z,90.4
2023-08-13T04:16:11.985Z,90
2023-08-13T04:17:52.636Z,90.5
2023-08-13T04:19:33.094Z,90.2
2023-08-13T04:21:13.574Z,90.1
2023-08-13T04:22:54.004Z,90.5
2023-08-13T04:24:34.462Z,90.5
2023-08-13T04:26:14.928Z,90.2
2023-08-13T04:27:55.385Z,90.2
2023-08-13T04:29:35.835Z,90.1
2023-08-13T04:31:16.389Z,90.3
2023-08-13T04:32:56.955Z,90.3
2023-08-13T04:34:37.444Z,90.4
2023-08-13T04:36:17.865Z,90.3
2023-08-13T04:37:58.314Z,90.4
2023-08-13T04:39:38.770Z,90.4
2023-08-13T04:41:19.228Z,89.9
2023-08-13T04:42:59.734Z,90.3
2023-08-13T04:44:40.250Z,90.5
2023-08-13T04:46:20.721Z,90
2023-08-13T04:48:01.372Z,90.1
2023-08-13T04:49:41.976Z,90.1
2023-08-13T04:51:22.466Z,90.2
2023-08-13T04:53:02.934Z,90.4
2023-08-13T04:54:45.296Z,90.4
2023-08-13T04:56:25.843Z,90
2023-08-13T04:58:06.356Z,90.1
2023-08-13T04:59:46.799Z,90.1
2023-08-13T05:01:27.376Z,90.3
2023-08-13T05:03:07.923Z,90.2
2023-08-13T05:04:48.470Z,90
2023-08-13T05:06:28.928Z,89.8
2023-08-13T05:08:09.403Z,90.1
2023-08-13T05:09:49.839Z,90.1
2023-08-13T05:11:30.330Z,90.3
2023-08-13T05:13:10.761Z,90.2
2023-08-13T05:14:51.205Z,90.1
2023-08-13T05:16:31.747Z,90.3
2023-08-13T05:18:12.327Z,90.4
2023-08-13T05:19:52.978Z,89.9
2023-08-13T05:21:33.470Z,90.3
2023-08-13T05:23:13.897Z,90.2
2023-08-13T05:24:54.357Z,89.8
2023-08-13T05:26:34.847Z,89.9
2023-08-13T05:28:15.261Z,90.3
2023-08-13T05:29:55.933Z,90.7
2023-08-13T05:31:36.469Z,90.4
2023-08-13T05:33:16.954Z,90
2023-08-13T05:34:57.392Z,90.1
2023-08-13T05:36:37.880Z,90.8
2023-08-13T05:38:18.306Z,90.3
2023-08-13T05:39:58.882Z,90.4
2023-08-13T05:41:39.319Z,90.8
2023-08-13T05:43:36.678Z,90.3
2023-08-13T05:45:17.163Z,90.4
2023-08-13T05:46:57.617Z,90.6
2023-08-13T05:48:38.080Z,90.4
2023-08-13T05:50:18.613Z,90.5
2023-08-13T05:51:59.053Z,90.6
2023-08-13T05:53:39.514Z,90.5
2023-08-13T05:55:20.031Z,90.3
2023-08-13T05:57:00.516Z,90.5
2023-08-13T05:58:40.977Z,90.6
2023-08-13T06:00:21.398Z,90.4
2023-08-13T06:02:01.915Z,90.7
2023-08-13T06:03:42.436Z,90.5
2023-08-13T06:05:23.018Z,92
2023-08-13T06:07:03.453Z,90.7
2023-08-13T06:08:43.939Z,90.9
2023-08-13T06:10:24.385Z,91.2
2023-08-13T06:12:04.826Z,91
2023-08-13T06:13:45.417Z,91.1
2023-08-13T06:15:25.838Z,91.5
2023-08-13T06:17:16.065Z,91.4
2023-08-13T06:18:56.810Z,90.9
2023-08-13T06:20:37.265Z,91.2
2023-08-13T06:22:18.583Z,91
2023-08-13T06:23:59.294Z,91.1
2023-08-13T06:25:39.735Z,91
2023-08-13T06:27:20.202Z,91.4
2023-08-13T06:29:00.675Z,91.1
2023-08-13T06:30:41.281Z,92.7
2023-08-13T06:32:21.820Z,92.2
2023-08-13T06:34:02.316Z,91.6
2023-08-13T06:35:42.777Z,92.2
2023-08-13T06:37:23.244Z,92
2023-08-13T06:39:03.697Z,91.6
2023-08-13T06:40:44.246Z,91.9
2023-08-13T06:42:24.715Z,91.4
2023-08-13T06:44:05.162Z,92.1
2023-08-13T06:45:45.616Z,92.3
2023-08-13T06:47:26.176Z,92.7
2023-08-13T06:49:06.738Z,93.1
2023-08-13T06:50:47.206Z,93.3
2023-08-13T06:52:27.656Z,92.8
2023-08-13T06:54:08.107Z,91.9
2023-08-13T06:55:48.582Z,91.7
2023-08-13T06:57:29.002Z,91.7
2023-08-13T06:59:09.466Z,92.3
2023-08-13T07:00:49.920Z,92.6
2023-08-13T07:02:30.448Z,93.2
2023-08-13T07:04:11.040Z,92.7
2023-08-13T07:05:51.660Z,93.9
2023-08-13T07:07:32.258Z,93.4
2023-08-13T07:09:12.718Z,92.7
2023-08-13T07:10:53.195Z,92.8
2023-08-13T07:12:33.630Z,93
2023-08-13T07:14:14.091Z,93.5
2023-08-13T07:15:54.585Z,94
2023-08-13T07:17:35.323Z,92.9
2023-08-13T07:19:15.883Z,92.8
2023-08-13T07:20:56.312Z,93.5
2023-08-13T07:22:36.769Z,92.8
2023-08-13T07:24:17.262Z,93.2
2023-08-13T07:25:57.777Z,93.6
2023-08-13T07:27:38.249Z,93.4
2023-08-13T07:29:18.706Z,93.9
2023-08-13T07:30:59.164Z,93.6
2023-08-13T07:32:56.713Z,94
2023-08-13T07:34:37.286Z,93.7
2023-08-13T07:36:17.802Z,94
2023-08-13T07:37:58.440Z,94
2023-08-13T07:39:38.946Z,94
2023-08-13T07:41:19.391Z,93.9
2023-08-13T07:43:00.330Z,94.5
2023-08-13T07:44:40.820Z,93.7
2023-08-13T07:46:21.365Z,94.1
2023-08-13T07:48:02.056Z,94.6
2023-08-13T07:49:42.840Z,94.2
2023-08-13T07:51:23.728Z,94.2
2023-08-13T07:53:04.633Z,94.3
2023-08-13T07:54:45.090Z,93.9
2023-08-13T07:56:25.606Z,94.1
2023-08-13T07:58:06.219Z,94.3
2023-08-13T07:59:46.795Z,94
2023-08-13T08:03:18.671Z,93.6
2023-08-13T08:04:59.163Z,93.7
2023-08-13T08:06:39.666Z,93.6
2023-08-13T08:08:20.257Z,93.5
2023-08-13T08:10:00.720Z,94.1
2023-08-13T08:11:41.391Z,94
2023-08-13T08:13:21.828Z,94.2
2023-08-13T08:15:02.452Z,94.3
2023-08-13T08:16:42.965Z,94.4
2023-08-13T08:18:23.431Z,94.1
2023-08-13T08:20:03.863Z,94.1
2023-08-13T08:21:44.930Z,94
2023-08-13T08:23:25.385Z,94.1
2023-08-13T08:25:06.081Z,94.4
2023-08-13T08:26:46.815Z,94.3
2023-08-13T08:28:27.466Z,94.3
2023-08-13T08:30:07.964Z,94
2023-08-13T08:31:48.385Z,94.1
2023-08-13T08:33:28.860Z,94.2
2023-08-13T08:35:09.294Z,94.3
2023-08-13T08:36:49.747Z,94.1
2023-08-13T08:38:30.208Z,94
2023-08-13T08:40:10.682Z,94
2023-08-13T08:41:51.114Z,94.6
2023-08-13T08:43:31.568Z,93.2
2023-08-13T08:45:12.045Z,92.4
2023-08-13T08:46:52.556Z,93.2
2023-08-13T08:48:33.166Z,92.9
2023-08-13T08:50:13.626Z,93.2
2023-08-13T08:51:54.049Z,92
2023-08-13T08:53:34.516Z,91.8
2023-08-13T08:55:14.973Z,92
2023-08-13T08:56:55.416Z,92.4
2023-08-13T08:58:35.897Z,92.4
2023-08-13T09:00:16.327Z,92.9
2023-08-13T09:01:56.826Z,91.8
2023-08-13T09:03:37.444Z,91.6
2023-08-13T09:05:18.008Z,91.9
2023-08-13T09:06:58.463Z,92.3
2023-08-13T09:08:38.918Z,93
2023-08-13T09:10:19.377Z,92.4
2023-08-13T09:11:59.832Z,92.3
2023-08-13T09:13:40.278Z,92.7
2023-08-13T09:15:20.834Z,93
2023-08-13T09:17:01.400Z,92.7
2023-08-13T09:18:42.150Z,92
2023-08-13T09:20:22.854Z,92.7
2023-08-13T09:22:03.355Z,92.3
2023-08-13T09:23:43.843Z,93
2023-08-13T09:25:24.365Z,93
2023-08-13T09:27:04.852Z,93.2
2023-08-13T09:28:45.316Z,93
2023-08-13T09:30:25.765Z,92.9
2023-08-13T09:32:06.229Z,92.9
2023-08-13T09:33:46.690Z,92.2
2023-08-13T09:35:27.243Z,91.7
2023-08-13T09:37:07.684Z,90.9
2023-08-13T09:38:48.137Z,92.3
2023-08-13T09:40:28.658Z,92.6
2023-08-13T09:42:09.222Z,92.1
2023-08-13T09:43:49.706Z,92.3
2023-08-13T09:45:30.175Z,91.3
2023-08-13T09:47:10.678Z,91.2
2023-08-13T09:48:51.137Z,92.9
2023-08-13T09:50:31.569Z,92.9
2023-08-13T09:52:12.062Z,91.5
2023-08-13T09:54:09.504Z,92.8
2023-08-13T09:55:49.971Z,92.9
2023-08-13T09:57:30.506Z,93.4
2023-08-13T09:59:11.114Z,92.8
2023-08-13T10:00:51.734Z,92.9
2023-08-13T10:02:32.286Z,93.5
2023-08-13T10:04:13.074Z,93.6
2023-08-13T10:05:53.605Z,93
2023-08-13T10:07:34.057Z,92.8
2023-08-13T10:09:14.524Z,93
2023-08-13T10:10:54.967Z,92.8
2023-08-13T10:12:35.451Z,93.7
2023-08-13T10:14:15.897Z,93.4
2023-08-13T10:15:56.391Z,93.7
2023-08-13T10:17:36.879Z,93.6
2023-08-13T10:19:17.474Z,93.9
2023-08-13T10:20:58.027Z,93.5
2023-08-13T10:22:38.475Z,93.7
2023-08-13T10:24:18.926Z,93.6
2023-08-13T10:25:59.383Z,93.5
2023-08-13T10:27:39.855Z,94.1
2023-08-13T10:29:20.317Z,93.5
2023-08-13T10:31:00.747Z,93.8
2023-08-13T10:32:41.291Z,93.8
2023-08-13T10:34:21.783Z,93.5
2023-08-13T10:36:03.299Z,93.6
2023-08-13T10:37:43.805Z,93.4
2023-08-13T10:39:24.252Z,93.4
2023-08-13T10:41:04.800Z,93.6
2023-08-13T10:42:45.280Z,93.4
2023-08-13T10:44:25.834Z,94.1
2023-08-13T10:46:06.420Z,93.4
2023-08-13T10:47:46.948Z,93.9
2023-08-13T10:49:27.723Z,93.8
2023-08-13T10:51:08.178Z,93.6
2023-08-13T10:52:48.831Z,93.9
2023-08-13T10:54:29.815Z,93.6
2023-08-13T10:56:10.412Z,93.9
2023-08-13T10:57:50.899Z,93.6
2023-08-13T10:59:31.425Z,94.2
2023-08-13T11:01:12.000Z,94
2023-08-13T11:02:52.563Z,93.9
2023-08-13T11:04:33.159Z,93.7
2023-08-13T11:06:13.614Z,93.9
2023-08-13T11:07:54.063Z,93.9
2023-08-13T11:09:34.736Z,94.4
2023-08-13T11:11:15.186Z,93.9
2023-08-13T11:12:55.625Z,94.2
2023-08-13T11:14:36.111Z,94.1
2023-08-13T11:16:16.793Z,93.9
2023-08-13T11:17:57.400Z,94.4
2023-08-13T11:19:38.003Z,93.9
2023-08-13T11:21:18.512Z,94.1
2023-08-13T11:22:58.969Z,94
2023-08-13T11:24:39.439Z,94.2
2023-08-13T11:26:19.903Z,94
2023-08-13T11:28:00.350Z,94
2023-08-13T11:29:40.911Z,94.2
2023-08-13T11:31:21.364Z,94
2023-08-13T11:33:01.995Z,94.4
2023-08-13T11:34:42.601Z,94.2
2023-08-13T11:36:23.020Z,94.3
2023-08-13T11:38:03.499Z,94.2
2023-08-13T11:39:43.939Z,94.1
2023-08-13T11:43:21.977Z,94.1
2023-08-13T11:45:02.405Z,94.2
2023-08-13T11:46:42.926Z,94.2
2023-08-13T11:48:23.615Z,94
2023-08-13T11:50:04.481Z,93.9
2023-08-13T11:51:44.942Z,93.9
2023-08-13T11:53:25.507Z,93.9
2023-08-13T11:55:05.972Z,93.8
2023-08-13T11:56:46.447Z,93.8
2023-08-13T11:58:26.877Z,93.8
2023-08-13T12:00:07.330Z,93.9
2023-08-13T12:01:47.814Z,93.8
2023-08-13T12:03:28.479Z,93.9
2023-08-13T12:05:09.122Z,93.9
2023-08-13T12:06:49.569Z,93.9
2023-08-13T12:08:30.115Z,94
2023-08-13T12:10:10.676Z,93.9
2023-08-13T12:11:51.132Z,94
2023-08-13T12:13:31.585Z,94.1
2023-08-13T12:15:12.065Z,94.1
2023-08-13T12:16:52.604Z,94
2023-08-13T12:18:33.052Z,94.4
2023-08-13T12:20:13.704Z,93.7
2023-08-13T12:21:54.284Z,94.3
2023-08-13T12:23:34.892Z,93.8
2023-08-13T12:25:15.494Z,94
2023-08-13T12:26:55.962Z,94.1
2023-08-13T12:28:36.427Z,94
2023-08-13T12:30:16.872Z,94.2
2023-08-13T12:31:57.330Z,94.3
2023-08-13T12:33:37.770Z,94.3
2023-08-13T12:35:18.426Z,94
2023-08-13T12:36:58.884Z,94.1
2023-08-13T12:38:40.002Z,94.2
2023-08-13T12:40:22.778Z,94.2
2023-08-13T12:42:03.251Z,94.1
2023-08-13T12:43:43.708Z,93.9
2023-08-13T12:45:24.178Z,93.8
2023-08-13T12:47:04.599Z,94.2
2023-08-13T12:48:45.097Z,93.9
2023-08-13T12:50:25.631Z,94.1
2023-08-13T12:52:06.410Z,94
2023-08-13T12:53:47.077Z,94.1
2023-08-13T12:55:27.699Z,93.7
2023-08-13T12:57:08.365Z,94.3
2023-08-13T12:58:49.080Z,94
2023-08-13T13:00:29.597Z,94
2023-08-13T13:02:10.135Z,93.8
2023-08-13T13:03:50.610Z,93.8
2023-08-13T13:05:31.072Z,94
2023-08-13T13:07:11.541Z,94
2023-08-13T13:08:52.078Z,93.8
2023-08-13T13:10:32.501Z,93.5
2023-08-13T13:12:13.032Z,93.6
2023-08-13T13:13:54.003Z,93.7
2023-08-13T13:15:34.503Z,94.1
2023-08-13T13:17:14.984Z,93.9
2023-08-13T13:18:55.526Z,94.3
2023-08-13T13:20:36.045Z,94.2
2023-08-13T13:22:17.168Z,94.2
2023-08-13T13:23:58.404Z,94.1
2023-08-13T13:25:38.858Z,93.8
2023-08-13T13:27:19.327Z,94
2023-08-13T13:28:59.766Z,94.1
2023-08-13T13:30:58.025Z,94.1
2023-08-13T13:32:38.639Z,94.1
2023-08-13T13:34:19.272Z,94
2023-08-13T13:35:59.818Z,94.1
2023-08-13T13:37:40.384Z,94.5
2023-08-13T13:39:21.018Z,94.4
2023-08-13T13:41:01.520Z,93
2023-08-13T13:42:41.957Z,93.3
2023-08-13T13:44:22.427Z,93.7
2023-08-13T13:46:03.046Z,94.1
2023-08-13T13:47:43.550Z,94.4
2023-08-13T13:49:24.091Z,94.6
2023-08-13T13:51:04.636Z,94.6
2023-08-13T13:52:45.099Z,94.6
2023-08-13T13:54:25.552Z,94.6
2023-08-13T13:56:06.129Z,94.5
2023-08-13T13:57:46.565Z,94.4
2023-08-13T13:59:27.079Z,94.3
2023-08-13T14:01:07.597Z,94.4
2023-08-13T14:03:22.000Z,94.2
2023-08-13T14:05:02.640Z,94.3
2023-08-13T14:06:43.095Z,94.5
2023-08-13T14:08:23.548Z,94.7
2023-08-13T14:10:04.095Z,94.3
2023-08-13T14:11:44.553Z,94.3
2023-08-13T14:13:25.167Z,94.2
2023-08-13T14:15:05.866Z,94.7
2023-08-13T14:16:46.594Z,94.2
2023-08-13T14:18:27.095Z,94.3
2023-08-13T14:20:07.535Z,94.5
2023-08-13T14:21:48.026Z,94.3
2023-08-13T14:23:28.463Z,94.4
2023-08-13T14:25:08.908Z,94.5
2023-08-13T14:26:49.363Z,94.3
2023-08-13T14:28:29.837Z,94.4
2023-08-13T14:30:10.272Z,94.3
2023-08-13T14:31:50.822Z,94.4
2023-08-13T14:33:31.402Z,94.7
2023-08-13T14:35:11.846Z,94.4
2023-08-13T14:36:52.337Z,94.4
2023-08-13T14:38:32.867Z,94.6
2023-08-13T14:40:15.914Z,94.4
2023-08-13T14:41:57.888Z,94.5
2023-08-13T14:43:38.423Z,94.4
2023-08-13T14:45:18.877Z,94.6
2023-08-13T14:46:59.345Z,94.5
2023-08-13T14:48:39.785Z,94.5
2023-08-13T14:50:20.244Z,94.6
2023-08-13T14:52:00.727Z,94.6
2023-08-13T14:53:41.177Z,94.6
2023-08-13T14:55:21.621Z,94.5
2023-08-13T14:57:02.142Z,94.5
2023-08-13T14:58:42.641Z,94.4
2023-08-13T15:00:24.693Z,94.6
2023-08-13T15:02:05.280Z,94.6
2023-08-13T15:03:45.987Z,94.8
2023-08-13T15:05:26.609Z,94.5
2023-08-13T15:07:07.078Z,94.4
2023-08-13T15:08:47.507Z,94.6
2023-08-13T15:10:27.969Z,94.6
2023-08-13T15:12:08.422Z,94.5
2023-08-13T15:13:48.889Z,94.6
2023-08-13T15:15:29.354Z,94.6
2023-08-13T15:17:09.891Z,94.7
2023-08-13T15:18:50.347Z,94.6
2023-08-13T15:20:30.819Z,94.7
2023-08-13T15:22:11.309Z,94.7
2023-08-13T15:23:51.730Z,94.6
2023-08-13T15:25:55.011Z,94.3
2023-08-13T15:27:36.382Z,94.5
2023-08-13T15:29:16.848Z,94.7
2023-08-13T15:30:57.452Z,94.8
2023-08-13T15:32:38.235Z,94.6
2023-08-13T15:34:18.817Z,94.7
2023-08-13T15:35:59.754Z,94.7
2023-08-13T15:37:40.273Z,94.6
2023-08-13T15:39:20.799Z,94.7
2023-08-13T15:41:01.252Z,94.7
2023-08-13T15:42:41.719Z,94.7
2023-08-13T15:44:22.183Z,94.7
2023-08-13T15:46:02.621Z,94.7
2023-08-13T15:47:43.121Z,94.7
2023-08-13T15:49:23.634Z,94.8
2023-08-13T15:51:04.090Z,94.8
2023-08-13T15:54:41.982Z,94.8
2023-08-13T15:56:22.444Z,94.8
2023-08-13T15:58:02.920Z,94.8
2023-08-13T15:59:43.352Z,94.8
2023-08-13T16:01:23.903Z,94.8
2023-08-13T16:03:04.504Z,94.8
2023-08-13T16:04:45.231Z,94.8
2023-08-13T16:06:25.821Z,94.8
2023-08-13T16:08:09.879Z,94.9
2023-08-13T16:09:50.383Z,94.9
2023-08-13T16:11:30.857Z,94.9
2023-08-13T16:13:11.300Z,94.8
2023-08-13T16:14:51.751Z,94.8
2023-08-13T16:16:32.477Z,94.9
2023-08-13T16:18:13.112Z,94.8
2023-08-13T16:19:54.018Z,95
2023-08-13T16:21:34.523Z,94.9
2023-08-13T16:23:15.193Z,94.9
2023-08-13T16:24:55.613Z,94.9
2023-08-13T16:26:36.198Z,95
2023-08-13T16:28:16.727Z,95
2023-08-13T16:29:57.186Z,94.9
2023-08-13T16:31:37.732Z,95
2023-08-13T16:33:18.265Z,95
2023-08-13T16:34:58.877Z,95
2023-08-13T16:36:39.330Z,95
2023-08-13T16:38:19.796Z,95.1
2023-08-13T16:40:00.255Z,95
2023-08-13T16:41:40.679Z,95
2023-08-13T16:43:21.134Z,95.1
2023-08-13T16:45:01.617Z,95.1
2023-08-13T16:46:42.171Z,95.2
2023-08-13T16:48:22.605Z,95.1
2023-08-13T16:50:16.082Z,95.1
2023-08-13T16:51:56.628Z,95.1
2023-08-13T16:53:37.099Z,95.1
2023-08-13T16:55:17.658Z,95.1
2023-08-13T16:56:58.152Z,95.1
2023-08-13T16:58:38.662Z,95.2
2023-08-13T17:00:19.137Z,95.1
2023-08-13T17:01:59.606Z,95.2
2023-08-13T17:03:40.287Z,95.2
2023-08-13T17:05:20.901Z,95.2
2023-08-13T17:07:01.335Z,95.3
2023-08-13T17:08:41.865Z,95.3
2023-08-13T17:10:22.411Z,95.3
2023-08-13T17:12:02.921Z,95.3
2023-08-13T17:13:43.427Z,95.3
2023-08-13T17:15:27.073Z,95.4
2023-08-13T17:17:07.566Z,95.2
2023-08-13T17:18:48.032Z,95.3
2023-08-13T17:20:28.472Z,95.4
2023-08-13T17:22:08.927Z,95.3
2023-08-13T17:23:49.419Z,95.3
2023-08-13T17:25:29.903Z,95.4
2023-08-13T17:27:10.385Z,95.4
2023-08-13T17:28:50.859Z,95.4
2023-08-13T17:30:31.304Z,95.3
2023-08-13T17:32:11.766Z,95.2
2023-08-13T17:33:52.228Z,95.2
2023-08-13T17:35:32.676Z,95.3
2023-08-13T17:37:13.296Z,95.2
2023-08-13T17:38:54.394Z,95.1
2023-08-13T17:40:34.859Z,95.1
2023-08-13T17:42:32.313Z,93.2
2023-08-13T17:44:12.777Z,90.6
2023-08-13T17:45:53.242Z,90.9
2023-08-13T17:47:33.864Z,92.5
2023-08-13T17:52:42.338Z,91.4
2023-08-13T17:54:09.466Z,92.6
2023-08-13T18:00:46.824Z,93.4
2023-08-13T18:02:27.474Z,93.8
2023-08-13T18:04:08.243Z,94.4
2023-08-13T18:05:48.718Z,94.4
2023-08-13T18:07:29.311Z,94.6
2023-08-13T18:09:09.816Z,94.8
2023-08-13T18:10:50.303Z,94.9
2023-08-13T18:12:30.818Z,94.9
2023-08-13T18:14:11.274Z,95
2023-08-13T18:15:51.800Z,95
2023-08-13T18:17:32.400Z,95
2023-08-13T18:19:13.234Z,95
2023-08-13T18:20:53.718Z,95.1
2023-08-13T18:22:34.187Z,95.1
2023-08-13T18:24:14.740Z,95.2
2023-08-13T18:25:55.215Z,95.2
2023-08-13T18:27:35.640Z,95.1
2023-08-13T18:29:16.197Z,95.2
2023-08-13T18:30:56.835Z,95.2
2023-08-13T18:32:37.530Z,95.2
2023-08-13T18:34:17.983Z,95.3
2023-08-13T18:35:58.428Z,95.3
2023-08-13T18:37:38.886Z,95.3
2023-08-13T18:39:19.352Z,95.3
2023-08-13T18:40:59.818Z,95.3
2023-08-13T18:42:40.356Z,95.3
2023-08-13T18:44:20.829Z,95.4
2023-08-13T18:46:01.273Z,95.3
2023-08-13T18:47:41.930Z,95.4
2023-08-13T18:49:22.452Z,95.4
2023-08-13T18:51:02.943Z,95.3
2023-08-13T18:52:43.457Z,95.5
2023-08-13T18:54:23.960Z,95.4
2023-08-13T18:56:04.509Z,95.4
2023-08-13T18:57:45.162Z,95.4
2023-08-13T18:59:25.632Z,95.4
2023-08-13T19:01:06.113Z,95.4
2023-08-13T19:02:46.647Z,95.5
2023-08-13T19:04:27.204Z,95.4
2023-08-13T19:06:07.656Z,95.5
2023-08-13T19:07:48.123Z,95.5
2023-08-13T19:09:28.571Z,95.5
2023-08-13T19:11:09.214Z,95.6
2023-08-13T19:12:49.685Z,95.6
2023-08-13T19:14:30.139Z,95.5
2023-08-13T19:16:10.682Z,95.6
2023-08-13T19:17:51.226Z,95.5
2023-08-13T19:19:31.708Z,95.5
2023-08-13T19:21:12.174Z,95.5
2023-08-13T19:22:52.634Z,95.6
2023-08-13T19:24:33.084Z,95.5
2023-08-13T19:26:13.735Z,95.5
2023-08-13T19:27:54.198Z,95.5
2023-08-13T19:29:34.650Z,95.6
2023-08-13T19:31:15.204Z,95.5
2023-08-13T19:32:58.817Z,95.6
2023-08-13T19:34:39.514Z,95.5
2023-08-13T19:36:19.950Z,95.6
2023-08-13T19:38:00.406Z,95.6
2023-08-13T19:39:40.871Z,95.6
2023-08-13T19:41:21.343Z,95.6
2023-08-13T19:43:01.778Z,95.6
2023-08-13T19:44:42.243Z,95.6
2023-08-13T19:44:59.150Z,95.7
2023-08-13T19:46:39.727Z,95.7
2023-08-13T19:48:20.174Z,95.7
2023-08-13T19:50:00.642Z,95.7
2023-08-13T19:51:41.142Z,95.6
2023-08-13T19:53:21.740Z,95.6
2023-08-13T19:55:02.202Z,95.7
2023-08-13T19:56:42.781Z,95.7
2023-08-13T19:58:23.339Z,95.8
2023-08-13T20:00:03.776Z,95.7
2023-08-13T20:01:44.307Z,95.7
2023-08-13T20:03:25.123Z,95.7
2023-08-13T20:05:05.765Z,95.8
2023-08-13T20:06:46.204Z,95.7
2023-08-13T20:08:26.828Z,95.8
2023-08-13T20:10:07.364Z,95.8
2023-08-13T20:11:47.911Z,95.7
2023-08-13T20:13:28.452Z,95.7
2023-08-13T20:15:08.892Z,95.8
2023-08-13T20:16:49.443Z,95.8
2023-08-13T20:18:30.023Z,95.7
2023-08-13T20:20:10.467Z,95.8
2023-08-13T20:21:51.175Z,95.8
2023-08-13T20:23:31.696Z,95.8
2023-08-13T20:25:12.141Z,95.8
2023-08-13T20:26:52.792Z,95.8
2023-08-13T20:28:33.249Z,95.8
2023-08-13T20:30:13.706Z,95.8
2023-08-13T20:31:54.229Z,95.8
2023-08-13T20:33:34.834Z,95.9
2023-08-13T20:35:15.277Z,95.8
2023-08-13T20:36:55.743Z,95.7
2023-08-13T20:38:36.243Z,95.8
2023-08-13T20:40:16.683Z,95.8
2023-08-13T20:41:57.146Z,95.8
2023-08-13T20:43:37.666Z,95.8
2023-08-13T20:45:18.136Z,95.8
2023-08-13T20:46:58.779Z,95.8
2023-08-13T20:48:39.233Z,95.8
2023-08-13T20:50:19.760Z,95.8
2023-08-13T20:52:00.461Z,95.8
2023-08-13T20:53:40.907Z,95.8
2023-08-13T20:55:21.385Z,95.8
2023-08-13T20:57:01.851Z,95.8
2023-08-13T20:58:42.486Z,95.8
2023-08-13T21:00:22.961Z,95.8
2023-08-13T21:03:23.306Z,95.9
2023-08-13T21:05:03.786Z,95.9
2023-08-13T21:06:44.243Z,96
2023-08-13T21:08:24.696Z,95.9
2023-08-13T21:10:05.154Z,95.9
2023-08-13T21:11:45.614Z,95.8
2023-08-13T21:13:26.102Z,95.9
2023-08-13T21:15:06.706Z,95.9
2023-08-13T21:16:47.212Z,95.9
2023-08-13T21:18:27.763Z,96
2023-08-13T21:20:08.200Z,96
2023-08-13T21:21:48.760Z,95.9
2023-08-13T21:23:29.218Z,96
2023-08-13T21:25:09.729Z,96
2023-08-13T21:26:50.223Z,95.9
2023-08-13T21:28:30.874Z,95.9
2023-08-13T21:30:11.659Z,95.9
2023-08-13T21:31:52.099Z,96
2023-08-13T21:33:32.569Z,96
2023-08-13T21:35:14.000Z,96.1
2023-08-13T21:36:55.139Z,96.1
2023-08-13T21:38:35.667Z,95.9
2023-08-13T21:40:16.186Z,96.1
2023-08-13T21:41:56.795Z,96
2023-08-13T21:43:37.263Z,95.9
2023-08-13T21:45:17.686Z,96.1
2023-08-13T21:46:58.169Z,96.1
2023-08-13T21:48:38.599Z,96
2023-08-13T21:50:19.055Z,96
2023-08-13T21:51:59.518Z,96
2023-08-13T21:53:39.968Z,96
2023-08-13T21:55:20.427Z,96
2023-08-13T21:57:00.900Z,96
2023-08-13T21:58:41.362Z,96.1
2023-08-13T22:00:21.788Z,96
2023-08-13T22:02:02.268Z,96.1
2023-08-13T22:03:42.968Z,96
2023-08-13T22:05:23.567Z,96
2023-08-13T22:07:04.027Z,96.1
2023-08-13T22:08:44.497Z,96.1
2023-08-13T22:10:24.951Z,96
2023-08-13T22:12:05.393Z,96.1
2023-08-13T22:13:45.867Z,96.1
2023-08-13T22:15:26.311Z,96.1
2023-08-13T22:17:06.754Z,96.1
2023-08-13T22:18:47.206Z,96.1
2023-08-13T22:20:27.680Z,96.2
2023-08-13T22:22:08.121Z,96.1
2023-08-13T22:23:48.580Z,96.1
2023-08-13T22:25:29.040Z,96.2
2023-08-13T22:27:09.494Z,96.1
2023-08-13T22:28:49.984Z,96.1
2023-08-13T22:30:30.618Z,96.1
2023-08-13T22:32:11.062Z,96.1
2023-08-13T22:33:51.515Z,96.2
2023-08-13T22:35:32.091Z,96.1
2023-08-13T22:37:12.530Z,96.1
2023-08-13T22:38:53.070Z,96.2
2023-08-13T22:40:33.550Z,96.1
2023-08-13T22:42:14.001Z,96.2
2023-08-13T22:43:55.128Z,96.1
2023-08-13T22:45:35.643Z,96.1
2023-08-13T22:47:16.079Z,96.2
2023-08-13T22:48:56.549Z,96.1